sensor_id;sensor_type;location;lat;lon;timestamp;temperature;humidity
20866;DHT22;10593;48.398;10.698;2023-02-18T00:00:18;12.70;59.30
20866;DHT22;10593;48.398;10.698;2023-02-18T00:02:45;12.70;59.40
20866;DHT22;10593;48.398;10.698;2023-02-18T00:05:12;12.70;59.30
20866;DHT22;10593;48.398;10.698;2023-02-18T00:07:39;12.70;59.40
20866;DHT22;10593;48.398;10.698;2023-02-18T00:10:10;12.80;59.50
20866;DHT22;10593;48.398;10.698;2023-02-18T00:12:37;12.80;59.50
20866;DHT22;10593;48.398;10.698;2023-02-18T00:15:03;12.70;59.40
20866;DHT22;10593;48.398;10.698;2023-02-18T00:17:29;12.80;59.50
20866;DHT22;10593;48.398;10.698;2023-02-18T00:19:55;12.80;59.50
20866;DHT22;10593;48.398;10.698;2023-02-18T00:22:21;12.80;59.50
20866;DHT22;10593;48.398;10.698;2023-02-18T00:24:48;12.80;59.50
20866;DHT22;10593;48.398;10.698;2023-02-18T00:27:13;12.80;59.50
20866;DHT22;10593;48.398;10.698;2023-02-18T00:29:39;12.80;59.50
20866;DHT22;10593;48.398;10.698;2023-02-18T00:32:05;12.80;59.50
20866;DHT22;10593;48.398;10.698;2023-02-18T00:34:31;12.80;59.50
20866;DHT22;10593;48.398;10.698;2023-02-18T00:36:56;12.80;59.50
20866;DHT22;10593;48.398;10.698;2023-02-18T00:39:22;12.80;59.50
20866;DHT22;10593;48.398;10.698;2023-02-18T00:41:48;12.80;59.50
20866;DHT22;10593;48.398;10.698;2023-02-18T00:44:13;12.80;59.50
20866;DHT22;10593;48.398;10.698;2023-02-18T00:46:39;12.80;59.50
20866;DHT22;10593;48.398;10.698;2023-02-18T00:49:05;12.80;59.50
20866;DHT22;10593;48.398;10.698;2023-02-18T00:51:32;12.80;59.50
20866;DHT22;10593;48.398;10.698;2023-02-18T00:53:58;12.80;59.50
20866;DHT22;10593;48.398;10.698;2023-02-18T00:56:24;12.80;59.50
20866;DHT22;10593;48.398;10.698;2023-02-18T00:58:50;12.80;59.60
20866;DHT22;10593;48.398;10.698;2023-02-18T01:01:17;12.80;59.50
20866;DHT22;10593;48.398;10.698;2023-02-18T01:03:43;12.80;59.50
20866;DHT22;10593;48.398;10.698;2023-02-18T01:06:10;12.80;59.50
20866;DHT22;10593;48.398;10.698;2023-02-18T01:08:38;12.80;59.60
20866;DHT22;10593;48.398;10.698;2023-02-18T01:11:04;12.80;59.50
20866;DHT22;10593;48.398;10.698;2023-02-18T01:13:32;12.80;59.60
20866;DHT22;10593;48.398;10.698;2023-02-18T01:15:58;12.80;59.60
20866;DHT22;10593;48.398;10.698;2023-02-18T01:18:24;12.80;59.60
20866;DHT22;10593;48.398;10.698;2023-02-18T01:20:51;12.80;59.60
20866;DHT22;10593;48.398;10.698;2023-02-18T01:23:16;12.80;59.60
20866;DHT22;10593;48.398;10.698;2023-02-18T01:25:43;12.80;59.60
20866;DHT22;10593;48.398;10.698;2023-02-18T01:28:11;12.80;59.70
20866;DHT22;10593;48.398;10.698;2023-02-18T01:30:39;12.80;59.70
20866;DHT22;10593;48.398;10.698;2023-02-18T01:33:05;12.80;59.70
20866;DHT22;10593;48.398;10.698;2023-02-18T01:35:31;12.80;59.70
20866;DHT22;10593;48.398;10.698;2023-02-18T01:37:57;12.80;59.80
20866;DHT22;10593;48.398;10.698;2023-02-18T01:40:25;12.80;59.80
20866;DHT22;10593;48.398;10.698;2023-02-18T01:42:52;12.80;59.90
20866;DHT22;10593;48.398;10.698;2023-02-18T01:50:59;12.80;59.90
20866;DHT22;10593;48.398;10.698;2023-02-18T01:53:44;12.80;59.90
20866;DHT22;10593;48.398;10.698;2023-02-18T01:56:28;12.80;60.00
20866;DHT22;10593;48.398;10.698;2023-02-18T01:59:01;12.80;60.00
20866;DHT22;10593;48.398;10.698;2023-02-18T02:01:35;12.80;59.90
20866;DHT22;10593;48.398;10.698;2023-02-18T02:04:02;12.80;59.90
20866;DHT22;10593;48.398;10.698;2023-02-18T02:06:28;12.80;59.90
20866;DHT22;10593;48.398;10.698;2023-02-18T02:08:56;12.80;60.00
20866;DHT22;10593;48.398;10.698;2023-02-18T02:20:59;12.80;60.00
20866;DHT22;10593;48.398;10.698;2023-02-18T02:38:34;12.80;60.00
20866;DHT22;10593;48.398;10.698;2023-02-18T02:44:58;12.80;60.20
20866;DHT22;10593;48.398;10.698;2023-02-18T02:50:20;12.80;60.20
20866;DHT22;10593;48.398;10.698;2023-02-18T02:53:20;12.70;60.00
20866;DHT22;10593;48.398;10.698;2023-02-18T02:55:49;12.70;60.00
20866;DHT22;10593;48.398;10.698;2023-02-18T02:58:16;12.70;59.90
20866;DHT22;10593;48.398;10.698;2023-02-18T03:11:43;12.70;59.90
20866;DHT22;10593;48.398;10.698;2023-02-18T03:14:26;12.70;59.80
20866;DHT22;10593;48.398;10.698;2023-02-18T03:17:01;12.70;59.70
20866;DHT22;10593;48.398;10.698;2023-02-18T03:19:38;12.70;59.70
20866;DHT22;10593;48.398;10.698;2023-02-18T03:22:22;12.70;59.60
20866;DHT22;10593;48.398;10.698;2023-02-18T03:24:54;12.70;59.70
20866;DHT22;10593;48.398;10.698;2023-02-18T03:27:22;12.70;59.60
20866;DHT22;10593;48.398;10.698;2023-02-18T03:30:03;12.70;59.60
20866;DHT22;10593;48.398;10.698;2023-02-18T03:32:35;12.70;59.60
20866;DHT22;10593;48.398;10.698;2023-02-18T03:35:08;12.70;59.50
20866;DHT22;10593;48.398;10.698;2023-02-18T03:37:42;12.70;59.50
20866;DHT22;10593;48.398;10.698;2023-02-18T03:40:13;12.70;59.50
20866;DHT22;10593;48.398;10.698;2023-02-18T03:42:40;12.80;59.60
20866;DHT22;10593;48.398;10.698;2023-02-18T03:45:06;12.70;59.40
20866;DHT22;10593;48.398;10.698;2023-02-18T03:47:32;12.70;59.50
20866;DHT22;10593;48.398;10.698;2023-02-18T03:49:58;12.70;59.50
20866;DHT22;10593;48.398;10.698;2023-02-18T03:52:23;12.70;59.50
20866;DHT22;10593;48.398;10.698;2023-02-18T03:54:49;12.80;59.50
20866;DHT22;10593;48.398;10.698;2023-02-18T03:57:15;12.80;59.60
20866;DHT22;10593;48.398;10.698;2023-02-18T03:59:41;12.70;59.50
20866;DHT22;10593;48.398;10.698;2023-02-18T04:02:06;12.70;59.50
20866;DHT22;10593;48.398;10.698;2023-02-18T04:04:32;12.70;59.50
20866;DHT22;10593;48.398;10.698;2023-02-18T04:06:57;12.70;59.50
20866;DHT22;10593;48.398;10.698;2023-02-18T04:09:23;12.70;59.60
20866;DHT22;10593;48.398;10.698;2023-02-18T04:11:49;12.70;59.60
20866;DHT22;10593;48.398;10.698;2023-02-18T04:14:14;12.70;59.60
20866;DHT22;10593;48.398;10.698;2023-02-18T04:16:41;12.70;59.60
20866;DHT22;10593;48.398;10.698;2023-02-18T04:19:06;12.70;59.60
20866;DHT22;10593;48.398;10.698;2023-02-18T04:21:33;12.80;59.70
20866;DHT22;10593;48.398;10.698;2023-02-18T04:23:59;12.70;59.60
20866;DHT22;10593;48.398;10.698;2023-02-18T04:26:25;12.70;59.60
20866;DHT22;10593;48.398;10.698;2023-02-18T04:28:51;12.80;59.70
20866;DHT22;10593;48.398;10.698;2023-02-18T04:31:17;12.70;59.60
20866;DHT22;10593;48.398;10.698;2023-02-18T04:33:42;12.70;59.60
20866;DHT22;10593;48.398;10.698;2023-02-18T04:36:08;12.70;59.60
20866;DHT22;10593;48.398;10.698;2023-02-18T04:38:34;12.70;59.60
20866;DHT22;10593;48.398;10.698;2023-02-18T04:41:00;12.70;59.60
20866;DHT22;10593;48.398;10.698;2023-02-18T04:43:26;12.70;59.60
20866;DHT22;10593;48.398;10.698;2023-02-18T04:45:51;12.70;59.60
20866;DHT22;10593;48.398;10.698;2023-02-18T04:48:17;12.70;59.60
20866;DHT22;10593;48.398;10.698;2023-02-18T04:50:43;12.70;59.60
20866;DHT22;10593;48.398;10.698;2023-02-18T04:53:09;12.70;59.60
20866;DHT22;10593;48.398;10.698;2023-02-18T04:55:35;12.70;59.60
20866;DHT22;10593;48.398;10.698;2023-02-18T04:58:00;12.70;59.60
20866;DHT22;10593;48.398;10.698;2023-02-18T05:00:26;12.70;59.60
20866;DHT22;10593;48.398;10.698;2023-02-18T05:02:53;12.70;59.60
20866;DHT22;10593;48.398;10.698;2023-02-18T05:05:19;12.70;59.60
20866;DHT22;10593;48.398;10.698;2023-02-18T05:07:45;12.70;59.60
20866;DHT22;10593;48.398;10.698;2023-02-18T05:10:14;12.70;59.60
20866;DHT22;10593;48.398;10.698;2023-02-18T05:12:41;12.70;59.60
20866;DHT22;10593;48.398;10.698;2023-02-18T05:15:07;12.70;59.60
20866;DHT22;10593;48.398;10.698;2023-02-18T05:17:34;12.70;59.60
20866;DHT22;10593;48.398;10.698;2023-02-18T05:20:00;12.70;59.60
20866;DHT22;10593;48.398;10.698;2023-02-18T05:22:26;12.70;59.60
20866;DHT22;10593;48.398;10.698;2023-02-18T05:24:51;12.70;59.60
20866;DHT22;10593;48.398;10.698;2023-02-18T05:27:17;12.70;59.60
20866;DHT22;10593;48.398;10.698;2023-02-18T05:29:43;12.70;59.60
20866;DHT22;10593;48.398;10.698;2023-02-18T05:32:08;12.70;59.60
20866;DHT22;10593;48.398;10.698;2023-02-18T05:34:34;12.70;59.60
20866;DHT22;10593;48.398;10.698;2023-02-18T05:37:00;12.70;59.60
20866;DHT22;10593;48.398;10.698;2023-02-18T05:39:25;12.70;59.60
20866;DHT22;10593;48.398;10.698;2023-02-18T05:41:51;12.70;59.60
20866;DHT22;10593;48.398;10.698;2023-02-18T05:44:17;12.70;59.60
20866;DHT22;10593;48.398;10.698;2023-02-18T05:46:55;12.70;59.60
20866;DHT22;10593;48.398;10.698;2023-02-18T05:49:22;12.60;59.50
20866;DHT22;10593;48.398;10.698;2023-02-18T05:51:48;12.70;59.60
20866;DHT22;10593;48.398;10.698;2023-02-18T05:54:14;12.70;59.60
20866;DHT22;10593;48.398;10.698;2023-02-18T05:56:40;12.70;59.60
20866;DHT22;10593;48.398;10.698;2023-02-18T05:59:05;12.70;59.60
20866;DHT22;10593;48.398;10.698;2023-02-18T06:01:31;12.70;59.60
20866;DHT22;10593;48.398;10.698;2023-02-18T06:03:57;12.70;59.60
20866;DHT22;10593;48.398;10.698;2023-02-18T06:06:23;12.70;59.60
20866;DHT22;10593;48.398;10.698;2023-02-18T06:08:49;12.60;59.50
20866;DHT22;10593;48.398;10.698;2023-02-18T06:11:14;12.70;59.60
20866;DHT22;10593;48.398;10.698;2023-02-18T06:13:40;12.70;59.60
20866;DHT22;10593;48.398;10.698;2023-02-18T06:16:06;12.70;59.60
20866;DHT22;10593;48.398;10.698;2023-02-18T06:18:31;12.60;59.50
20866;DHT22;10593;48.398;10.698;2023-02-18T06:20:57;12.60;59.50
20866;DHT22;10593;48.398;10.698;2023-02-18T06:23:23;12.60;59.50
20866;DHT22;10593;48.398;10.698;2023-02-18T06:25:49;12.60;59.50
20866;DHT22;10593;48.398;10.698;2023-02-18T06:28:16;12.60;59.50
20866;DHT22;10593;48.398;10.698;2023-02-18T06:30:43;12.60;59.50
20866;DHT22;10593;48.398;10.698;2023-02-18T06:33:09;12.60;59.60
20866;DHT22;10593;48.398;10.698;2023-02-18T06:35:35;12.60;60.20
20866;DHT22;10593;48.398;10.698;2023-02-18T06:38:01;12.60;59.60
20866;DHT22;10593;48.398;10.698;2023-02-18T06:40:27;12.60;59.60
20866;DHT22;10593;48.398;10.698;2023-02-18T06:42:52;12.60;59.60
20866;DHT22;10593;48.398;10.698;2023-02-18T06:45:18;12.60;59.60
20866;DHT22;10593;48.398;10.698;2023-02-18T06:47:44;12.60;59.70
20866;DHT22;10593;48.398;10.698;2023-02-18T06:50:09;12.60;59.70
20866;DHT22;10593;48.398;10.698;2023-02-18T06:52:35;12.60;59.70
20866;DHT22;10593;48.398;10.698;2023-02-18T06:55:06;12.60;59.70
20866;DHT22;10593;48.398;10.698;2023-02-18T06:57:33;12.60;59.70
20866;DHT22;10593;48.398;10.698;2023-02-18T06:59:59;12.60;59.70
20866;DHT22;10593;48.398;10.698;2023-02-18T07:02:26;12.60;59.70
20866;DHT22;10593;48.398;10.698;2023-02-18T07:04:52;12.60;59.80
20866;DHT22;10593;48.398;10.698;2023-02-18T07:07:18;12.60;59.80
20866;DHT22;10593;48.398;10.698;2023-02-18T07:09:43;12.60;59.80
20866;DHT22;10593;48.398;10.698;2023-02-18T07:12:09;12.60;59.80
20866;DHT22;10593;48.398;10.698;2023-02-18T07:14:35;12.60;59.80
20866;DHT22;10593;48.398;10.698;2023-02-18T07:17:00;12.60;59.70
20866;DHT22;10593;48.398;10.698;2023-02-18T07:19:26;12.60;59.80
20866;DHT22;10593;48.398;10.698;2023-02-18T07:21:52;12.60;59.80
20866;DHT22;10593;48.398;10.698;2023-02-18T07:24:22;12.60;59.80
20866;DHT22;10593;48.398;10.698;2023-02-18T07:26:47;12.60;59.80
20866;DHT22;10593;48.398;10.698;2023-02-18T07:29:13;12.60;59.80
20866;DHT22;10593;48.398;10.698;2023-02-18T07:31:39;12.60;59.80
20866;DHT22;10593;48.398;10.698;2023-02-18T07:34:04;12.70;59.90
20866;DHT22;10593;48.398;10.698;2023-02-18T07:36:30;12.70;59.90
20866;DHT22;10593;48.398;10.698;2023-02-18T07:38:55;12.70;59.90
20866;DHT22;10593;48.398;10.698;2023-02-18T07:41:22;12.70;59.90
20866;DHT22;10593;48.398;10.698;2023-02-18T07:43:48;12.70;59.90
20866;DHT22;10593;48.398;10.698;2023-02-18T07:46:14;12.70;59.90
20866;DHT22;10593;48.398;10.698;2023-02-18T07:48:41;12.70;59.90
20866;DHT22;10593;48.398;10.698;2023-02-18T07:51:09;12.70;60.00
20866;DHT22;10593;48.398;10.698;2023-02-18T07:53:37;12.70;60.00
20866;DHT22;10593;48.398;10.698;2023-02-18T07:56:04;12.70;60.00
20866;DHT22;10593;48.398;10.698;2023-02-18T07:58:32;12.70;60.00
20866;DHT22;10593;48.398;10.698;2023-02-18T08:01:07;12.80;60.10
20866;DHT22;10593;48.398;10.698;2023-02-18T08:03:35;12.80;60.10
20866;DHT22;10593;48.398;10.698;2023-02-18T08:06:02;12.80;60.10
20866;DHT22;10593;48.398;10.698;2023-02-18T08:08:31;12.80;60.00
20866;DHT22;10593;48.398;10.698;2023-02-18T08:10:59;12.80;59.90
20866;DHT22;10593;48.398;10.698;2023-02-18T08:13:31;12.80;59.90
20866;DHT22;10593;48.398;10.698;2023-02-18T08:15:57;12.90;60.00
20866;DHT22;10593;48.398;10.698;2023-02-18T08:18:24;12.90;60.00
20866;DHT22;10593;48.398;10.698;2023-02-18T08:20:50;12.90;59.90
20866;DHT22;10593;48.398;10.698;2023-02-18T08:23:19;12.90;59.80
20866;DHT22;10593;48.398;10.698;2023-02-18T08:25:48;12.90;59.80
20866;DHT22;10593;48.398;10.698;2023-02-18T08:28:19;12.90;59.80
20866;DHT22;10593;48.398;10.698;2023-02-18T08:30:46;12.90;59.70
20866;DHT22;10593;48.398;10.698;2023-02-18T08:33:14;12.90;59.70
20866;DHT22;10593;48.398;10.698;2023-02-18T08:35:41;13.00;59.70
20866;DHT22;10593;48.398;10.698;2023-02-18T08:38:07;13.00;59.60
20866;DHT22;10593;48.398;10.698;2023-02-18T08:40:33;13.00;59.60
20866;DHT22;10593;48.398;10.698;2023-02-18T08:42:58;13.00;59.60
20866;DHT22;10593;48.398;10.698;2023-02-18T08:45:24;13.00;59.50
20866;DHT22;10593;48.398;10.698;2023-02-18T08:47:50;13.00;59.50
20866;DHT22;10593;48.398;10.698;2023-02-18T08:50:15;13.10;59.60
20866;DHT22;10593;48.398;10.698;2023-02-18T08:52:41;13.10;59.40
20866;DHT22;10593;48.398;10.698;2023-02-18T08:55:07;13.10;59.30
20866;DHT22;10593;48.398;10.698;2023-02-18T08:57:33;13.10;59.30
20866;DHT22;10593;48.398;10.698;2023-02-18T08:59:58;13.10;59.30
20866;DHT22;10593;48.398;10.698;2023-02-18T09:02:24;13.20;59.30
20866;DHT22;10593;48.398;10.698;2023-02-18T09:04:50;13.20;59.40
20866;DHT22;10593;48.398;10.698;2023-02-18T09:07:15;13.20;59.40
20866;DHT22;10593;48.398;10.698;2023-02-18T09:09:41;13.20;59.40
20866;DHT22;10593;48.398;10.698;2023-02-18T09:12:08;13.20;59.30
20866;DHT22;10593;48.398;10.698;2023-02-18T09:14:33;13.30;59.30
20866;DHT22;10593;48.398;10.698;2023-02-18T09:16:59;13.30;59.20
20866;DHT22;10593;48.398;10.698;2023-02-18T09:19:25;13.30;59.10
20866;DHT22;10593;48.398;10.698;2023-02-18T09:21:51;13.30;59.00
20866;DHT22;10593;48.398;10.698;2023-02-18T09:24:20;13.30;59.00
20866;DHT22;10593;48.398;10.698;2023-02-18T09:26:46;13.40;59.00
20866;DHT22;10593;48.398;10.698;2023-02-18T09:29:12;13.40;59.00
20866;DHT22;10593;48.398;10.698;2023-02-18T09:31:38;13.40;59.00
20866;DHT22;10593;48.398;10.698;2023-02-18T09:34:04;13.40;59.00
20866;DHT22;10593;48.398;10.698;2023-02-18T09:36:31;13.40;59.00
20866;DHT22;10593;48.398;10.698;2023-02-18T09:38:57;13.40;58.90
20866;DHT22;10593;48.398;10.698;2023-02-18T09:41:40;13.40;59.00
20866;DHT22;10593;48.398;10.698;2023-02-18T09:44:16;13.50;58.90
20866;DHT22;10593;48.398;10.698;2023-02-18T09:50:03;13.60;58.90
20866;DHT22;10593;48.398;10.698;2023-02-18T09:52:37;13.60;59.00
20866;DHT22;10593;48.398;10.698;2023-02-18T09:58:03;13.60;58.70
20866;DHT22;10593;48.398;10.698;2023-02-18T10:00:41;13.60;58.60
20866;DHT22;10593;48.398;10.698;2023-02-18T10:03:24;13.70;58.60
20866;DHT22;10593;48.398;10.698;2023-02-18T10:06:05;13.70;58.60
20866;DHT22;10593;48.398;10.698;2023-02-18T10:08:47;13.70;58.40
20866;DHT22;10593;48.398;10.698;2023-02-18T10:11:21;13.70;58.30
20866;DHT22;10593;48.398;10.698;2023-02-18T10:13:52;13.80;58.40
20866;DHT22;10593;48.398;10.698;2023-02-18T10:16:19;13.80;58.30
20866;DHT22;10593;48.398;10.698;2023-02-18T10:18:49;13.80;58.20
20866;DHT22;10593;48.398;10.698;2023-02-18T10:21:24;13.80;58.10
20866;DHT22;10593;48.398;10.698;2023-02-18T10:26:33;13.90;57.80
20866;DHT22;10593;48.398;10.698;2023-02-18T10:29:01;13.90;57.80
20866;DHT22;10593;48.398;10.698;2023-02-18T10:31:35;13.90;57.80
20866;DHT22;10593;48.398;10.698;2023-02-18T10:34:22;14.00;57.90
20866;DHT22;10593;48.398;10.698;2023-02-18T10:37:01;14.00;57.70
20866;DHT22;10593;48.398;10.698;2023-02-18T10:46:01;14.00;57.60
20866;DHT22;10593;48.398;10.698;2023-02-18T10:51:47;14.00;57.30
20866;DHT22;10593;48.398;10.698;2023-02-18T10:54:16;14.00;57.50
20866;DHT22;10593;48.398;10.698;2023-02-18T10:56:48;14.00;57.60
20866;DHT22;10593;48.398;10.698;2023-02-18T10:59:33;14.10;57.40
20866;DHT22;10593;48.398;10.698;2023-02-18T11:02:02;14.10;57.20
20866;DHT22;10593;48.398;10.698;2023-02-18T11:04:40;14.10;57.40
20866;DHT22;10593;48.398;10.698;2023-02-18T11:07:14;14.10;57.30
20866;DHT22;10593;48.398;10.698;2023-02-18T11:09:49;14.10;57.20
20866;DHT22;10593;48.398;10.698;2023-02-18T11:12:27;14.20;57.30
20866;DHT22;10593;48.398;10.698;2023-02-18T11:15:05;14.20;57.20
20866;DHT22;10593;48.398;10.698;2023-02-18T11:17:36;14.20;57.10
20866;DHT22;10593;48.398;10.698;2023-02-18T11:20:22;14.20;57.10
20866;DHT22;10593;48.398;10.698;2023-02-18T11:25:34;14.30;56.90
20866;DHT22;10593;48.398;10.698;2023-02-18T11:30:44;14.30;56.90
20866;DHT22;10593;48.398;10.698;2023-02-18T11:33:23;14.30;56.60
20866;DHT22;10593;48.398;10.698;2023-02-18T11:35:57;14.30;56.60
20866;DHT22;10593;48.398;10.698;2023-02-18T11:38:34;14.30;56.70
20866;DHT22;10593;48.398;10.698;2023-02-18T11:41:10;14.40;56.70
20866;DHT22;10593;48.398;10.698;2023-02-18T11:43:42;14.40;56.60
20866;DHT22;10593;48.398;10.698;2023-02-18T11:46:19;14.40;56.70
20866;DHT22;10593;48.398;10.698;2023-02-18T11:48:47;14.40;56.60
20866;DHT22;10593;48.398;10.698;2023-02-18T11:51:25;14.40;56.60
20866;DHT22;10593;48.398;10.698;2023-02-18T11:54:00;14.40;56.40
20866;DHT22;10593;48.398;10.698;2023-02-18T11:56:32;14.40;56.40
20866;DHT22;10593;48.398;10.698;2023-02-18T11:59:01;14.40;56.40
20866;DHT22;10593;48.398;10.698;2023-02-18T12:04:16;14.50;56.50
20866;DHT22;10593;48.398;10.698;2023-02-18T12:07:19;14.50;56.40
20866;DHT22;10593;48.398;10.698;2023-02-18T12:10:02;14.50;56.10
20866;DHT22;10593;48.398;10.698;2023-02-18T12:13:09;14.50;56.20
20866;DHT22;10593;48.398;10.698;2023-02-18T12:27:48;14.60;56.10
20866;DHT22;10593;48.398;10.698;2023-02-18T12:30:31;14.60;56.20
20866;DHT22;10593;48.398;10.698;2023-02-18T12:42:22;14.60;55.90
20866;DHT22;10593;48.398;10.698;2023-02-18T12:46:01;14.70;55.90
20866;DHT22;10593;48.398;10.698;2023-02-18T12:49:01;14.70;55.80
20866;DHT22;10593;48.398;10.698;2023-02-18T12:51:48;14.70;55.80
20866;DHT22;10593;48.398;10.698;2023-02-18T12:54:57;14.70;55.80
20866;DHT22;10593;48.398;10.698;2023-02-18T12:57:37;14.70;55.70
20866;DHT22;10593;48.398;10.698;2023-02-18T13:00:22;14.70;55.90
20866;DHT22;10593;48.398;10.698;2023-02-18T13:09:28;14.70;55.80
20866;DHT22;10593;48.398;10.698;2023-02-18T13:15:42;14.70;55.70
20866;DHT22;10593;48.398;10.698;2023-02-18T13:18:19;14.70;55.60
20866;DHT22;10593;48.398;10.698;2023-02-18T13:20:53;14.70;55.70
20866;DHT22;10593;48.398;10.698;2023-02-18T13:23:25;14.70;55.70
20866;DHT22;10593;48.398;10.698;2023-02-18T13:25:58;14.70;55.60
20866;DHT22;10593;48.398;10.698;2023-02-18T13:28:47;14.70;55.60
20866;DHT22;10593;48.398;10.698;2023-02-18T13:31:41;14.80;55.40
20866;DHT22;10593;48.398;10.698;2023-02-18T13:37:31;14.80;55.30
20866;DHT22;10593;48.398;10.698;2023-02-18T13:40:18;14.80;55.30
20866;DHT22;10593;48.398;10.698;2023-02-18T13:42:53;14.80;55.20
20866;DHT22;10593;48.398;10.698;2023-02-18T13:45:26;14.80;55.30
20866;DHT22;10593;48.398;10.698;2023-02-18T13:47:54;14.80;55.10
20866;DHT22;10593;48.398;10.698;2023-02-18T13:55:56;14.80;54.90
20866;DHT22;10593;48.398;10.698;2023-02-18T14:01:21;14.90;55.00
20866;DHT22;10593;48.398;10.698;2023-02-18T14:03:52;14.80;54.70
20866;DHT22;10593;48.398;10.698;2023-02-18T14:12:14;14.90;54.60
20866;DHT22;10593;48.398;10.698;2023-02-18T14:14:40;14.90;54.60
20866;DHT22;10593;48.398;10.698;2023-02-18T14:27:37;14.90;54.60
20866;DHT22;10593;48.398;10.698;2023-02-18T14:30:15;14.90;54.50
20866;DHT22;10593;48.398;10.698;2023-02-18T14:32:59;14.90;54.50
20866;DHT22;10593;48.398;10.698;2023-02-18T14:46:08;15.00;54.60
20866;DHT22;10593;48.398;10.698;2023-02-18T14:48:59;15.00;54.80
20866;DHT22;10593;48.398;10.698;2023-02-18T14:51:47;15.00;54.70
20866;DHT22;10593;48.398;10.698;2023-02-18T14:54:20;15.00;54.60
20866;DHT22;10593;48.398;10.698;2023-02-18T14:57:15;15.00;54.50
20866;DHT22;10593;48.398;10.698;2023-02-18T14:59:43;15.00;54.30
20866;DHT22;10593;48.398;10.698;2023-02-18T15:02:26;15.00;54.40
20866;DHT22;10593;48.398;10.698;2023-02-18T15:05:10;15.00;54.20
20866;DHT22;10593;48.398;10.698;2023-02-18T15:07:38;15.00;54.10
20866;DHT22;10593;48.398;10.698;2023-02-18T15:10:04;15.00;54.10
20866;DHT22;10593;48.398;10.698;2023-02-18T15:12:30;15.00;54.00
20866;DHT22;10593;48.398;10.698;2023-02-18T15:15:00;15.00;53.70
20866;DHT22;10593;48.398;10.698;2023-02-18T15:17:28;15.00;53.40
20866;DHT22;10593;48.398;10.698;2023-02-18T15:19:56;15.00;53.40
20866;DHT22;10593;48.398;10.698;2023-02-18T15:22:26;15.00;53.20
20866;DHT22;10593;48.398;10.698;2023-02-18T15:24:56;15.00;53.20
20866;DHT22;10593;48.398;10.698;2023-02-18T15:27:30;15.00;53.20
20866;DHT22;10593;48.398;10.698;2023-02-18T15:30:16;15.10;52.80
20866;DHT22;10593;48.398;10.698;2023-02-18T15:32:49;15.10;52.30
20866;DHT22;10593;48.398;10.698;2023-02-18T15:35:19;15.00;52.40
20866;DHT22;10593;48.398;10.698;2023-02-18T15:37:51;15.00;52.10
20866;DHT22;10593;48.398;10.698;2023-02-18T15:40:21;15.10;52.20
20866;DHT22;10593;48.398;10.698;2023-02-18T15:42:50;15.10;52.20
20866;DHT22;10593;48.398;10.698;2023-02-18T15:45:23;15.10;52.20
20866;DHT22;10593;48.398;10.698;2023-02-18T15:47:56;15.10;52.20
20866;DHT22;10593;48.398;10.698;2023-02-18T15:50:57;15.10;52.20
20866;DHT22;10593;48.398;10.698;2023-02-18T15:53:18;15.10;52.00
20866;DHT22;10593;48.398;10.698;2023-02-18T15:55:48;15.10;51.90
20866;DHT22;10593;48.398;10.698;2023-02-18T16:00:54;15.10;51.80
20866;DHT22;10593;48.398;10.698;2023-02-18T16:03:41;15.10;51.60
20866;DHT22;10593;48.398;10.698;2023-02-18T16:06:18;15.10;51.70
20866;DHT22;10593;48.398;10.698;2023-02-18T16:08:59;15.10;51.70
20866;DHT22;10593;48.398;10.698;2023-02-18T16:11:32;15.10;51.60
20866;DHT22;10593;48.398;10.698;2023-02-18T16:13:59;15.10;51.80
20866;DHT22;10593;48.398;10.698;2023-02-18T16:16:33;15.10;51.80
20866;DHT22;10593;48.398;10.698;2023-02-18T16:19:01;15.10;51.90
20866;DHT22;10593;48.398;10.698;2023-02-18T16:21:36;15.10;51.80
20866;DHT22;10593;48.398;10.698;2023-02-18T16:26:50;15.10;51.60
20866;DHT22;10593;48.398;10.698;2023-02-18T16:29:33;15.10;51.70
20866;DHT22;10593;48.398;10.698;2023-02-18T16:32:01;15.10;51.50
20866;DHT22;10593;48.398;10.698;2023-02-18T16:34:27;15.00;51.70
20866;DHT22;10593;48.398;10.698;2023-02-18T16:36:53;15.10;52.20
20866;DHT22;10593;48.398;10.698;2023-02-18T16:39:38;15.00;51.70
20866;DHT22;10593;48.398;10.698;2023-02-18T16:42:09;15.00;51.70
20866;DHT22;10593;48.398;10.698;2023-02-18T16:44:36;15.00;51.70
20866;DHT22;10593;48.398;10.698;2023-02-18T16:47:02;15.00;51.80
20866;DHT22;10593;48.398;10.698;2023-02-18T16:49:28;15.00;51.80
20866;DHT22;10593;48.398;10.698;2023-02-18T16:51:54;15.00;51.80
20866;DHT22;10593;48.398;10.698;2023-02-18T16:54:20;15.00;51.90
20866;DHT22;10593;48.398;10.698;2023-02-18T16:56:47;15.00;51.90
20866;DHT22;10593;48.398;10.698;2023-02-18T16:59:12;14.90;52.00
20866;DHT22;10593;48.398;10.698;2023-02-18T17:01:41;14.90;52.00
20866;DHT22;10593;48.398;10.698;2023-02-18T17:04:16;15.00;52.10
20866;DHT22;10593;48.398;10.698;2023-02-18T17:06:44;14.90;52.00
20866;DHT22;10593;48.398;10.698;2023-02-18T17:09:19;14.90;52.00
20866;DHT22;10593;48.398;10.698;2023-02-18T17:11:49;14.90;52.00
20866;DHT22;10593;48.398;10.698;2023-02-18T17:14:17;14.90;52.00
20866;DHT22;10593;48.398;10.698;2023-02-18T17:16:45;14.90;52.00
20866;DHT22;10593;48.398;10.698;2023-02-18T17:19:12;14.90;52.00
20866;DHT22;10593;48.398;10.698;2023-02-18T17:21:39;14.90;52.00
20866;DHT22;10593;48.398;10.698;2023-02-18T17:24:05;14.90;52.00
20866;DHT22;10593;48.398;10.698;2023-02-18T17:26:31;14.80;51.90
20866;DHT22;10593;48.398;10.698;2023-02-18T17:28:58;14.80;51.90
20866;DHT22;10593;48.398;10.698;2023-02-18T17:31:30;14.80;51.90
20866;DHT22;10593;48.398;10.698;2023-02-18T17:34:02;14.80;52.00
20866;DHT22;10593;48.398;10.698;2023-02-18T17:36:30;14.80;52.10
20866;DHT22;10593;48.398;10.698;2023-02-18T17:38:57;14.80;52.20
20866;DHT22;10593;48.398;10.698;2023-02-18T17:41:24;14.80;51.90
20866;DHT22;10593;48.398;10.698;2023-02-18T17:43:50;14.80;51.90
20866;DHT22;10593;48.398;10.698;2023-02-18T17:46:17;14.70;52.00
20866;DHT22;10593;48.398;10.698;2023-02-18T17:48:45;14.70;52.10
20866;DHT22;10593;48.398;10.698;2023-02-18T17:51:24;14.70;52.00
20866;DHT22;10593;48.398;10.698;2023-02-18T17:53:51;14.70;52.10
20866;DHT22;10593;48.398;10.698;2023-02-18T17:56:18;14.70;52.10
20866;DHT22;10593;48.398;10.698;2023-02-18T17:58:43;14.70;52.10
20866;DHT22;10593;48.398;10.698;2023-02-18T18:01:10;14.70;52.10
20866;DHT22;10593;48.398;10.698;2023-02-18T18:03:36;14.70;52.00